createdAt,value
2019-06-01T00:00:30.644Z,23.07
2019-06-01T00:03:02.491Z,23.12
2019-06-01T00:05:34.102Z,23.12
2019-06-01T00:08:05.859Z,23.05
2019-06-01T00:10:37.514Z,23.01
2019-06-01T00:13:09.266Z,23.00
2019-06-01T00:15:42.047Z,23.07
2019-06-01T00:18:13.496Z,23.06
2019-06-01T00:20:48.392Z,23.10
2019-06-01T00:23:20.795Z,23.05
2019-06-01T00:25:52.933Z,23.00
2019-06-01T00:28:25.564Z,22.94
2019-06-01T00:30:56.988Z,22.88
2019-06-01T00:33:28.849Z,22.86
2019-06-01T00:36:01.322Z,22.77
2019-06-01T00:38:34.818Z,22.68
2019-06-01T00:41:06.269Z,22.59
2019-06-01T00:43:38.028Z,22.52
2019-06-01T00:46:09.632Z,22.43
2019-06-01T00:48:44.199Z,22.23
2019-06-01T00:51:15.929Z,22.24
2019-06-01T00:53:49.420Z,22.17
2019-06-01T00:56:21.108Z,22.13
2019-06-01T00:58:53.939Z,22.12
2019-06-01T01:01:26.252Z,22.15
2019-06-01T01:03:58.116Z,22.18
2019-06-01T01:06:32.539Z,22.14
2019-06-01T01:09:08.357Z,22.10
2019-06-01T01:11:40.051Z,22.00
2019-06-01T01:14:12.518Z,21.96
2019-06-01T01:16:45.536Z,21.91
2019-06-01T01:19:17.881Z,21.93
2019-06-01T01:21:52.140Z,21.86
2019-06-01T01:24:24.059Z,21.81
2019-06-01T01:26:56.796Z,21.76
2019-06-01T01:29:29.309Z,21.73
2019-06-01T01:32:01.379Z,21.66
2019-06-01T01:34:33.739Z,21.64
2019-06-01T01:37:05.802Z,21.61
2019-06-01T01:39:37.409Z,21.56
2019-06-01T01:42:09.153Z,21.53
2019-06-01T01:44:40.835Z,21.51
2019-06-01T01:47:14.445Z,21.48
2019-06-01T01:49:47.149Z,21.47
2019-06-01T01:52:19.004Z,21.44
2019-06-01T01:54:50.760Z,21.42
2019-06-01T01:57:22.824Z,21.42
2019-06-01T01:59:57.375Z,21.40
2019-06-01T02:02:31.048Z,21.37
2019-06-01T02:05:02.707Z,21.38
2019-06-01T02:07:35.076Z,21.41
2019-06-01T02:10:08.227Z,21.41
2019-06-01T02:12:39.713Z,21.45
2019-06-01T02:15:11.385Z,21.43
2019-06-01T02:17:43.938Z,21.44
2019-06-01T02:20:15.698Z,21.48
2019-06-01T02:22:49.813Z,21.49
2019-06-01T02:25:22.390Z,21.52
2019-06-01T02:27:55.050Z,21.53
2019-06-01T02:30:28.093Z,21.50
2019-06-01T02:33:00.695Z,21.52
2019-06-01T02:35:37.307Z,21.52
2019-06-01T02:38:09.055Z,21.51
2019-06-01T02:40:40.811Z,21.55
2019-06-01T02:43:15.982Z,21.56
2019-06-01T02:45:47.397Z,21.63
2019-06-01T02:48:19.462Z,21.63
2019-06-01T02:50:51.320Z,21.67
2019-06-01T02:53:23.115Z,21.64
2019-06-01T02:55:57.876Z,21.70
2019-06-01T02:58:30.176Z,21.75
2019-06-01T03:01:23.026Z,21.74
2019-06-01T03:03:57.619Z,21.73
2019-06-01T03:06:31.422Z,21.76
2019-06-01T03:09:06.683Z,21.88
2019-06-01T03:11:40.976Z,21.94
2019-06-01T03:14:14.000Z,21.94
2019-06-01T03:16:51.385Z,21.92
2019-06-01T03:19:25.910Z,21.88
2019-06-01T03:22:03.773Z,21.96
2019-06-01T03:24:37.407Z,22.04
2019-06-01T03:27:12.447Z,22.04
2019-06-01T03:29:47.367Z,21.87
2019-06-01T03:32:35.373Z,21.82
2019-06-01T03:34:55.442Z,21.98
2019-06-01T03:37:28.303Z,22.00
2019-06-01T03:40:01.062Z,22.02
2019-06-01T03:42:33.110Z,22.13
2019-06-01T03:45:07.548Z,22.05
2019-06-01T03:47:39.285Z,22.23
2019-06-01T03:50:11.252Z,22.34
2019-06-01T03:52:43.315Z,22.45
2019-06-01T03:55:15.171Z,22.45
2019-06-01T03:57:46.928Z,22.53
2019-06-01T04:00:20.320Z,22.59
2019-06-01T04:02:51.672Z,22.69
2019-06-01T04:05:24.450Z,22.76
2019-06-01T04:07:58.635Z,22.83
2019-06-01T04:10:30.524Z,22.81
2019-06-01T04:13:03.522Z,22.80
2019-06-01T04:15:35.935Z,22.90
2019-06-01T04:18:08.602Z,22.95
2019-06-01T04:20:41.767Z,23.01
2019-06-01T04:23:13.206Z,23.13
2019-06-01T04:25:46.009Z,23.25
2019-06-01T04:28:19.170Z,23.31
2019-06-01T04:30:50.768Z,23.45
2019-06-01T04:33:23.608Z,23.55
2019-06-01T04:35:55.662Z,23.64
2019-06-01T04:38:31.008Z,23.75
2019-06-01T04:41:03.558Z,23.74
2019-06-01T04:43:36.060Z,23.86
2019-06-01T04:46:08.205Z,23.93
2019-06-01T04:48:41.104Z,24.05
2019-06-01T04:51:13.506Z,24.10
2019-06-01T04:53:45.459Z,24.19
2019-06-01T04:56:18.728Z,24.29
2019-06-01T04:58:50.482Z,24.27
2019-06-01T05:01:22.245Z,24.44
2019-06-01T05:03:53.900Z,24.63
2019-06-01T05:06:25.543Z,24.69
2019-06-01T05:08:57.174Z,24.80
2019-06-01T05:11:29.377Z,24.83
2019-06-01T05:14:00.718Z,24.90
2019-06-01T05:16:32.728Z,25.04
2019-06-01T05:19:05.958Z,25.29
2019-06-01T05:21:37.427Z,25.40
2019-06-01T05:24:10.588Z,25.56
2019-06-01T05:26:44.935Z,25.51
2019-06-01T05:29:18.122Z,25.58
2019-06-01T05:31:51.708Z,25.71
2019-06-01T05:34:23.790Z,25.83
2019-06-01T05:36:56.768Z,25.83
2019-06-01T05:39:28.314Z,26.01
2019-06-01T05:42:00.181Z,26.00
2019-06-01T05:44:31.964Z,26.08
2019-06-01T05:47:03.987Z,26.16
2019-06-01T05:49:35.785Z,26.32
2019-06-01T05:52:07.417Z,26.47
2019-06-01T05:54:38.957Z,26.43
2019-06-01T05:57:11.010Z,26.59
2019-06-01T05:59:43.500Z,26.79
2019-06-01T06:02:17.454Z,26.81
2019-06-01T06:04:49.075Z,26.75
2019-06-01T06:07:20.820Z,26.85
2019-06-01T06:09:52.593Z,27.02
2019-06-01T06:12:24.330Z,27.18
2019-06-01T06:14:57.519Z,27.37
2019-06-01T06:17:29.175Z,27.67
2019-06-01T06:20:01.343Z,27.67
2019-06-01T06:22:35.156Z,27.72
2019-06-01T06:25:07.249Z,27.79
2019-06-01T06:27:39.170Z,27.69
2019-06-01T06:30:12.817Z,28.00
2019-06-01T06:32:44.731Z,28.18
2019-06-01T06:35:17.749Z,28.29
2019-06-01T06:37:49.884Z,28.25
2019-06-01T06:40:24.279Z,28.29
2019-06-01T06:42:57.696Z,28.41
2019-06-01T06:45:31.981Z,28.47
2019-06-01T06:48:03.724Z,28.61
2019-06-01T06:50:35.323Z,29.00
2019-06-01T06:53:08.993Z,29.18
2019-06-01T06:55:40.716Z,29.21
2019-06-01T06:58:13.765Z,29.12
2019-06-01T07:00:45.403Z,29.25
2019-06-01T07:03:17.198Z,29.40
2019-06-01T07:05:49.649Z,29.76
2019-06-01T07:08:21.873Z,29.94
2019-06-01T07:10:53.794Z,29.68
2019-06-01T07:13:25.496Z,29.59
2019-06-01T07:15:57.598Z,29.76
2019-06-01T07:18:30.090Z,29.79
2019-06-01T07:21:01.529Z,29.76
2019-06-01T07:23:33.548Z,29.82
2019-06-01T07:26:06.197Z,30.09
2019-06-01T07:28:39.553Z,29.82
2019-06-01T07:31:12.537Z,29.71
2019-06-01T07:33:44.136Z,29.66
2019-06-01T07:36:18.110Z,29.84
2019-06-01T07:38:49.553Z,29.99
2019-06-01T07:41:22.640Z,30.23
2019-06-01T07:43:54.496Z,30.46
2019-06-01T07:46:26.924Z,30.81
2019-06-01T07:48:59.752Z,31.03
2019-06-01T07:51:31.687Z,30.91
2019-06-01T07:54:04.395Z,30.90
2019-06-01T07:56:35.954Z,30.86
2019-06-01T07:59:07.798Z,31.01
2019-06-01T08:01:41.305Z,30.89
2019-06-01T08:04:12.954Z,30.95
2019-06-01T08:06:48.103Z,31.07
2019-06-01T08:09:17.800Z,31.34
2019-06-01T08:11:49.475Z,31.51
2019-06-01T08:14:22.538Z,31.68
2019-06-01T08:16:54.325Z,31.91
2019-06-01T08:19:28.039Z,31.94
2019-06-01T08:21:59.661Z,31.79
2019-06-01T08:24:32.841Z,31.47
2019-06-01T08:27:05.512Z,31.92
2019-06-01T08:29:36.769Z,31.78
2019-06-01T08:32:08.418Z,31.75
2019-06-01T08:34:43.354Z,32.06
2019-06-01T08:37:14.802Z,32.33
2019-06-01T08:39:46.245Z,32.76
2019-06-01T08:42:17.975Z,32.99
2019-06-01T08:44:49.652Z,32.98
2019-06-01T08:47:21.416Z,33.22
2019-06-01T08:49:53.684Z,33.40
2019-06-01T08:52:25.973Z,33.49
2019-06-01T08:54:57.403Z,33.65
2019-06-01T08:57:30.367Z,33.94
2019-06-01T09:00:02.212Z,34.07
2019-06-01T09:02:34.964Z,34.29
2019-06-01T09:05:23.364Z,34.48
2019-06-01T09:07:42.843Z,34.65
2019-06-01T09:10:14.854Z,34.52
2019-06-01T09:12:46.250Z,34.98
2019-06-01T09:15:18.876Z,35.26
2019-06-01T09:17:50.788Z,35.32
2019-06-01T09:20:22.337Z,35.49
2019-06-01T09:22:54.101Z,35.70
2019-06-01T09:25:25.904Z,35.83
2019-06-01T09:27:58.132Z,36.08
2019-06-01T09:30:32.187Z,36.06
2019-06-01T09:33:03.885Z,36.25
2019-06-01T09:35:52.609Z,36.36
2019-06-01T09:38:11.401Z,36.51
2019-06-01T09:40:46.846Z,36.48
2019-06-01T09:43:19.723Z,36.42
2019-06-01T09:45:53.183Z,36.71
2019-06-01T09:48:24.578Z,37.12
2019-06-01T09:50:56.323Z,37.25
2019-06-01T09:53:31.062Z,37.08
2019-06-01T09:56:05.545Z,37.81
2019-06-01T09:58:36.938Z,37.58
2019-06-01T10:01:08.718Z,37.15
2019-06-01T10:03:41.149Z,37.49
2019-06-01T10:06:14.156Z,37.64
2019-06-01T10:08:45.895Z,37.09
2019-06-01T10:11:17.599Z,37.04
2019-06-01T10:13:49.203Z,37.32
2019-06-01T10:16:22.205Z,37.19
2019-06-01T10:19:10.222Z,37.34
2019-06-01T10:21:57.954Z,38.18
2019-06-01T10:24:30.970Z,38.42
2019-06-01T10:27:04.825Z,38.50
2019-06-01T10:29:39.993Z,38.93
2019-06-01T10:32:11.756Z,38.95
2019-06-01T10:34:43.548Z,39.08
2019-06-01T10:37:15.450Z,39.57
2019-06-01T10:39:49.244Z,39.67
2019-06-01T10:42:23.476Z,39.95
2019-06-01T10:44:56.459Z,40.09
2019-06-01T10:47:28.011Z,40.39
2019-06-01T10:50:03.655Z,40.44
2019-06-01T10:52:36.556Z,40.32
2019-06-01T10:55:08.505Z,40.88
2019-06-01T10:57:40.622Z,41.19
2019-06-01T11:00:14.425Z,40.16
2019-06-01T11:02:45.308Z,40.50
2019-06-01T11:05:18.278Z,41.10
2019-06-01T11:07:49.835Z,41.60
2019-06-01T11:10:24.268Z,41.04
2019-06-01T11:12:56.055Z,41.57
2019-06-01T11:15:28.021Z,41.81
2019-06-01T11:18:01.489Z,42.21
2019-06-01T11:20:33.039Z,42.35
2019-06-01T11:23:05.700Z,42.77
2019-06-01T11:25:38.091Z,42.20
2019-06-01T11:28:11.273Z,42.35
2019-06-01T11:30:43.968Z,42.21
2019-06-01T11:33:16.385Z,42.85
2019-06-01T11:35:48.887Z,43.38
2019-06-01T11:38:21.773Z,42.89
2019-06-01T11:40:53.449Z,42.76
2019-06-01T11:43:27.547Z,43.28
2019-06-01T11:45:59.304Z,43.55
2019-06-01T11:48:30.965Z,43.88
2019-06-01T11:51:02.815Z,43.34
2019-06-01T11:53:39.773Z,43.51
2019-06-01T11:56:11.597Z,43.89
